Time;durP1;ratioP1;P1;durP2;ratioP2;P2;SDS_P1;SDS_P2;PMS_P1;PMS_P2;Temp;Humidity;BMP_temperature;BMP_pressure;BME280_temperature;BME280_humidity;BME280_pressure;Samples;Min_cycle;Max_cycle;Signal;HPM_P1;HPM_P2
2023/12/02 00:01:11;;;;;;;;;;;;;;;15.13;47.41;100041.31;4977294;28;1101;-48
2023/12/02 00:03:37;;;;;;;;;;;;;;;14.93;46.80;100040.25;4967680;28;1103;-47
2023/12/02 00:06:03;;;;;;;;;;;;;;;16.14;47.08;100042.25;4961741;28;1136;-48
2023/12/02 00:08:28;;;;;;;;;;;;;;;15.32;47.96;100037.22;4977360;28;1033;-47
2023/12/02 00:10:54;;;;;;;;;;;;;;;15.02;47.27;100028.06;4976908;28;1906;-49
2023/12/02 00:13:19;;;;;;;;;;;;;;;14.85;46.18;100029.41;4967842;28;1057;-47
2023/12/02 00:15:45;;;;;;;;;;;;;;;15.99;47.38;100033.75;4971322;28;1002;-46
2023/12/02 00:18:10;;;;;;;;;;;;;;;15.25;47.87;100028.06;4968191;28;1076;-45
2023/12/02 00:20:36;;;;;;;;;;;;;;;15.24;48.37;100031.69;4974319;28;1068;-48
2023/12/02 00:23:02;;;;;;;;;;;;;;;15.96;47.34;100021.56;4976722;28;874;-48
2023/12/02 00:25:27;;;;;;;;;;;;;;;15.27;47.67;100021.69;4964552;28;1168;-45
2023/12/02 00:27:53;;;;;;;;;;;;;;;15.04;47.13;100023.50;4967609;28;1137;-48
2023/12/02 00:30:18;;;;;;;;;;;;;;;16.27;47.50;100024.34;4970860;28;1911;-45
2023/12/02 00:32:44;;;;;;;;;;;;;;;15.47;47.95;100016.63;4958374;28;1060;-48
2023/12/02 00:35:09;;;;;;;;;;;;;;;15.10;47.41;100030.97;4960723;28;942;-45
2023/12/02 00:37:35;;;;;;;;;;;;;;;15.40;47.92;100018.06;4958852;28;1418;-49
2023/12/02 00:40:00;;;;;;;;;;;;;;;15.87;47.85;100024.94;4957371;28;1035;-50
2023/12/02 00:42:26;;;;;;;;;;;;;;;15.25;47.37;100015.66;4957371;29;1046;-46
2023/12/02 00:44:51;;;;;;;;;;;;;;;15.01;47.00;100010.50;4973789;28;1239;-48
2023/12/02 00:47:17;;;;;;;;;;;;;;;15.55;48.05;100015.97;4968141;28;1025;-48
2023/12/02 00:49:42;;;;;;;;;;;;;;;15.59;47.59;100008.63;4977713;28;1898;-49
2023/12/02 00:52:08;;;;;;;;;;;;;;;15.12;47.40;100015.81;4970770;28;1034;-46
2023/12/02 00:54:35;;;;;;;;;;;;;;;14.93;47.11;100013.75;4978588;28;1060;-48
2023/12/02 00:57:01;;;;;;;;;;;;;;;15.24;47.48;100015.78;4970067;28;1077;-50
2023/12/02 00:59:26;;;;;;;;;;;;;;;15.78;47.33;100015.97;4974213;28;1137;-47
2023/12/02 01:01:52;;;;;;;;;;;;;;;15.20;47.72;100009.06;4970884;28;1248;-48
2023/12/02 01:04:17;;;;;;;;;;;;;;;14.91;47.16;100003.25;4980365;28;1060;-48
2023/12/02 01:06:43;;;;;;;;;;;;;;;14.77;46.54;100004.31;4980881;28;1036;-49
2023/12/02 01:09:08;;;;;;;;;;;;;;;15.29;47.35;100010.97;4967308;28;1156;-48
2023/12/02 01:11:34;;;;;;;;;;;;;;;15.75;47.76;100017.03;4970291;28;1910;-49
2023/12/02 01:13:59;;;;;;;;;;;;;;;15.17;47.51;100005.69;4967392;28;1228;-47
2023/12/02 01:16:25;;;;;;;;;;;;;;;14.89;46.99;100004.34;4971828;28;1152;-50
2023/12/02 01:18:50;;;;;;;;;;;;;;;14.80;46.58;100004.09;4975229;28;1437;-48
2023/12/02 01:21:16;;;;;;;;;;;;;;;15.70;48.07;100005.13;4979147;28;1069;-48
2023/12/02 01:23:41;;;;;;;;;;;;;;;15.32;47.79;99999.28;4961141;28;1161;-49
2023/12/02 01:26:07;;;;;;;;;;;;;;;14.92;47.52;99998.81;4970204;28;1013;-48
2023/12/02 01:28:32;;;;;;;;;;;;;;;15.88;47.58;99997.47;4980261;28;1123;-48
2023/12/02 01:30:58;;;;;;;;;;;;;;;15.86;47.52;99994.94;4980065;28;1985;-48
2023/12/02 01:33:23;;;;;;;;;;;;;;;15.29;47.97;100003.03;4979548;28;1092;-48
2023/12/02 01:35:49;;;;;;;;;;;;;;;15.00;47.19;99995.56;4980361;28;1073;-48
2023/12/02 01:38:14;;;;;;;;;;;;;;;14.90;46.31;99985.69;4978389;28;1206;-48
2023/12/02 01:40:40;;;;;;;;;;;;;;;14.87;46.56;99987.72;4968508;28;1124;-46
2023/12/02 01:43:05;;;;;;;;;;;;;;;15.91;47.57;99987.44;4979962;28;1061;-46
2023/12/02 01:45:31;;;;;;;;;;;;;;;15.10;47.85;99977.16;4973481;28;1064;-49
2023/12/02 01:47:57;;;;;;;;;;;;;;;14.92;46.70;99981.13;4978496;28;1116;-48
2023/12/02 01:50:22;;;;;;;;;;;;;;;16.20;47.27;99974.59;4967468;28;1905;-47
2023/12/02 01:52:47;;;;;;;;;;;;;;;15.40;47.63;99973.84;4979685;28;1119;-45
2023/12/02 01:55:13;;;;;;;;;;;;;;;15.09;46.77;99964.88;4980313;28;1084;-50
2023/12/02 01:57:39;;;;;;;;;;;;;;;16.15;47.69;99964.31;4977642;28;1088;-50
2023/12/02 02:00:04;;;;;;;;;;;;;;;15.40;47.72;99959.75;4966086;28;1212;-46
2023/12/02 02:02:37;;;;;;;;;;;;;;;15.06;47.22;99958.00;4966618;28;1121;-49
2023/12/02 02:05:03;;;;;;;;;;;;;;;15.62;48.04;99953.56;4970852;28;1124;-47
2023/12/02 02:07:28;;;;;;;;;;;;;;;15.76;47.62;99960.41;4959146;28;1129;-48
2023/12/02 02:09:54;;;;;;;;;;;;;;;15.23;47.63;99950.53;4966175;28;1965;-46
2023/12/02 02:12:19;;;;;;;;;;;;;;;15.00;47.18;99948.72;4962166;28;1060;-49
2023/12/02 02:14:45;;;;;;;;;;;;;;;14.88;46.56;99934.66;4970234;28;1409;-47
2023/12/02 02:17:11;;;;;;;;;;;;;;;15.50;47.57;99943.94;4957326;28;1120;-47
2023/12/02 02:19:36;;;;;;;;;;;;;;;15.44;48.01;99932.03;4960126;29;1240;-43
2023/12/02 02:22:02;;;;;;;;;;;;;;;15.05;47.49;99921.88;4959317;28;1153;-48
2023/12/02 02:24:28;;;;;;;;;;;;;;;14.93;46.91;99921.88;4960028;28;1319;-50
2023/12/02 02:26:53;;;;;;;;;;;;;;;15.75;47.46;99921.56;4958156;29;1121;-53
2023/12/02 02:29:19;;;;;;;;;;;;;;;15.17;47.57;99928.84;4959324;29;1054;-47
2023/12/02 02:31:44;;;;;;;;;;;;;;;14.85;46.92;99913.72;4959024;28;1974;-47
2023/12/02 02:34:10;;;;;;;;;;;;;;;16.15;47.23;99917.41;4962004;28;1264;-50
2023/12/02 02:36:35;;;;;;;;;;;;;;;15.35;47.68;99920.38;4960832;28;1070;-49
2023/12/02 02:39:01;;;;;;;;;;;;;;;14.85;47.35;99915.53;4965030;28;1361;-47
2023/12/02 02:41:26;;;;;;;;;;;;;;;14.91;46.55;99920.34;4968847;28;982;-49
2023/12/02 02:43:52;;;;;;;;;;;;;;;14.94;46.65;99922.75;4963596;28;1180;-48
2023/12/02 02:46:17;;;;;;;;;;;;;;;15.86;47.07;99919.84;4961215;28;1069;-47
2023/12/02 02:48:43;;;;;;;;;;;;;;;15.19;47.43;99926.09;4959682;28;1037;-48
2023/12/02 02:51:08;;;;;;;;;;;;;;;15.46;48.18;99932.78;4967670;28;1910;-47
2023/12/02 02:53:33;;;;;;;;;;;;;;;15.65;47.99;99933.88;4962168;28;1334;-46
2023/12/02 02:55:59;;;;;;;;;;;;;;;15.30;47.04;99944.59;4958838;28;1216;-45
2023/12/02 02:58:28;;;;;;;;;;;;;;;15.05;46.86;99940.41;4958250;28;1225;-45
2023/12/02 03:00:53;;;;;;;;;;;;;;;14.88;46.36;99941.78;4958900;28;1315;-48
2023/12/02 03:03:19;;;;;;;;;;;;;;;14.83;45.27;99944.75;4962161;28;959;-50
2023/12/02 03:05:44;;;;;;;;;;;;;;;15.83;47.57;99946.63;4970421;28;1097;-47
2023/12/02 03:08:09;;;;;;;;;;;;;;;15.30;47.23;99949.06;4978220;28;1084;-48
2023/12/02 03:10:36;;;;;;;;;;;;;;;16.45;47.24;99959.22;4968203;28;1910;-44
2023/12/02 03:13:02;;;;;;;;;;;;;;;16.61;47.09;99956.94;4959313;29;1153;-47
2023/12/02 03:15:27;;;;;;;;;;;;;;;15.65;48.13;99960.41;4958887;29;1117;-50
2023/12/02 03:17:53;;;;;;;;;;;;;;;15.34;47.49;99953.16;4957677;28;1051;-46
2023/12/02 03:20:18;;;;;;;;;;;;;;;15.15;46.90;99959.06;4958920;29;1323;-49
2023/12/02 03:22:45;;;;;;;;;;;;;;;14.93;46.24;99964.28;4960015;28;1338;-48
2023/12/02 03:25:11;;;;;;;;;;;;;;;14.92;45.57;99953.78;4964484;28;874;-46
2023/12/02 03:27:37;;;;;;;;;;;;;;;14.80;45.22;99961.75;4955958;28;1304;-48
2023/12/02 03:30:03;;;;;;;;;;;;;;;15.83;47.37;99966.00;4960454;28;1910;-48
2023/12/02 03:32:29;;;;;;;;;;;;;;;15.19;47.20;99960.53;4970683;28;1132;-49
2023/12/02 03:34:54;;;;;;;;;;;;;;;14.99;46.48;99956.81;4971355;28;1127;-45
2023/12/02 03:37:20;;;;;;;;;;;;;;;14.86;46.35;99962.22;4963156;28;1148;-47
2023/12/02 03:39:45;;;;;;;;;;;;;;;15.70;47.01;99954.75;4959371;28;1023;-44
2023/12/02 03:42:11;;;;;;;;;;;;;;;15.60;47.58;99947.53;4970806;28;1152;-49
2023/12/02 03:44:36;;;;;;;;;;;;;;;15.20;47.64;99946.31;4958322;29;1156;-46
2023/12/02 03:47:03;;;;;;;;;;;;;;;15.02;46.54;99949.47;4959847;28;1069;-47
2023/12/02 03:49:28;;;;;;;;;;;;;;;16.24;47.63;99944.13;4971954;28;1902;-49
2023/12/02 03:51:54;;;;;;;;;;;;;;;15.61;48.16;99941.28;4970277;28;1060;-52
2023/12/02 03:54:19;;;;;;;;;;;;;;;15.53;47.63;99943.72;4971822;28;1219;-45
2023/12/02 03:56:45;;;;;;;;;;;;;;;15.72;46.50;99942.19;4958563;28;1065;-48
2023/12/02 03:59:11;;;;;;;;;;;;;;;16.23;48.04;99934.50;4965394;28;1236;-46
2023/12/02 04:01:36;;;;;;;;;;;;;;;15.49;48.26;99935.16;4956587;28;1366;-47
2023/12/02 04:04:02;;;;;;;;;;;;;;;15.09;47.34;99941.03;4974031;28;1244;-49
2023/12/02 04:06:28;;;;;;;;;;;;;;;15.12;46.50;99940.78;4977691;28;1080;-49
2023/12/02 04:08:53;;;;;;;;;;;;;;;14.99;46.02;99932.97;4977204;28;1465;-45
2023/12/02 04:11:18;;;;;;;;;;;;;;;15.66;47.66;99941.72;4975194;28;1981;-50
2023/12/02 04:13:44;;;;;;;;;;;;;;;15.32;47.75;99933.03;4962460;28;1319;-47
2023/12/02 04:16:10;;;;;;;;;;;;;;;14.96;47.14;99939.38;4965221;28;935;-46
2023/12/02 04:18:35;;;;;;;;;;;;;;;16.00;47.50;99939.91;4958138;28;1084;-47
2023/12/02 04:21:01;;;;;;;;;;;;;;;15.32;47.79;99939.19;4966145;28;952;-45
2023/12/02 04:23:26;;;;;;;;;;;;;;;15.06;47.18;99934.19;4970221;28;1057;-50
2023/12/02 04:25:52;;;;;;;;;;;;;;;16.13;47.91;99935.28;4981520;28;1132;-48
2023/12/02 04:28:17;;;;;;;;;;;;;;;15.66;48.12;99935.59;4966643;28;1188;-48
2023/12/02 04:30:42;;;;;;;;;;;;;;;15.26;47.68;99944.97;4962037;28;1988;-47
2023/12/02 04:33:09;;;;;;;;;;;;;;;15.09;46.98;99941.03;4962107;29;1164;-47
2023/12/02 04:35:34;;;;;;;;;;;;;;;14.98;46.26;99942.72;4968318;28;1318;-50
2023/12/02 04:38:00;;;;;;;;;;;;;;;15.73;48.06;99941.22;4961220;28;1045;-50
2023/12/02 04:40:25;;;;;;;;;;;;;;;15.64;48.05;99948.13;4959867;28;1170;-49
2023/12/02 04:42:51;;;;;;;;;;;;;;;15.22;47.66;99938.22;4971977;28;1066;-50
2023/12/02 04:45:16;;;;;;;;;;;;;;;15.02;46.69;99945.97;4967350;28;1219;-47
2023/12/02 04:47:42;;;;;;;;;;;;;;;15.70;47.70;99938.84;4968543;28;954;-44
2023/12/02 04:50:08;;;;;;;;;;;;;;;15.82;47.95;99934.31;4970203;28;1906;-46
2023/12/02 04:52:33;;;;;;;;;;;;;;;15.24;47.80;99941.59;4977726;28;1160;-56
2023/12/02 04:54:59;;;;;;;;;;;;;;;15.01;46.72;99933.69;4971092;28;1132;-49
2023/12/02 04:57:25;;;;;;;;;;;;;;;14.87;46.31;99929.47;4965133;28;1114;-46
2023/12/02 04:59:51;;;;;;;;;;;;;;;15.85;48.06;99928.78;4970715;28;1477;-46
2023/12/02 05:02:19;;;;;;;;;;;;;;;15.54;47.92;99930.34;4960536;28;1041;-48
2023/12/02 05:04:44;;;;;;;;;;;;;;;15.09;47.64;99925.97;4962354;28;1219;-47
2023/12/02 05:07:11;;;;;;;;;;;;;;;15.95;48.24;99921.72;4978260;28;1109;-47
2023/12/02 05:09:37;;;;;;;;;;;;;;;15.49;48.44;99931.66;4980563;28;1907;-51
2023/12/02 05:12:02;;;;;;;;;;;;;;;15.20;47.40;99927.75;4971592;28;1091;-54
2023/12/02 05:14:28;;;;;;;;;;;;;;;14.91;47.37;99929.09;4971772;28;1068;-47
2023/12/02 05:16:53;;;;;;;;;;;;;;;16.23;47.96;99918.59;4980392;28;1068;-48
2023/12/02 05:19:19;;;;;;;;;;;;;;;15.42;48.25;99926.03;4980024;28;1167;-52
2023/12/02 05:21:44;;;;;;;;;;;;;;;15.14;47.21;99910.56;4967576;28;1235;-48
2023/12/02 05:24:10;;;;;;;;;;;;;;;14.94;46.66;99912.16;4970547;28;1147;-49
2023/12/02 05:26:35;;;;;;;;;;;;;;;16.15;47.24;99914.75;4960872;28;1164;-54
2023/12/02 05:29:01;;;;;;;;;;;;;;;16.18;47.63;99904.88;4968948;28;1009;-49
2023/12/02 05:31:26;;;;;;;;;;;;;;;16.45;46.55;99912.25;4978662;28;1907;-48
2023/12/02 05:33:52;;;;;;;;;;;;;;;16.09;47.32;99911.78;4968968;28;1251;-50
2023/12/02 05:36:17;;;;;;;;;;;;;;;15.90;47.73;99910.63;4974739;28;1172;-51
2023/12/02 05:38:43;;;;;;;;;;;;;;;15.78;48.11;99902.75;4966500;28;1228;-51
2023/12/02 05:41:08;;;;;;;;;;;;;;;15.74;48.05;99901.34;4968165;28;1235;-53
2023/12/02 05:43:34;;;;;;;;;;;;;;;16.98;45.29;99898.94;4966309;28;1124;-50
2023/12/02 05:45:59;;;;;;;;;;;;;;;16.33;46.69;99898.22;4980173;28;1077;-52
2023/12/02 05:48:25;;;;;;;;;;;;;;;15.99;47.73;99899.31;4975350;28;1084;-49
2023/12/02 05:50:50;;;;;;;;;;;;;;;15.75;48.33;99916.25;4979523;28;1971;-47
2023/12/02 05:53:16;;;;;;;;;;;;;;;16.38;47.00;99914.59;4966773;28;1142;-51
2023/12/02 05:55:41;;;;;;;;;;;;;;;16.91;45.43;99906.59;4980142;28;1081;-47
2023/12/02 05:58:07;;;;;;;;;;;;;;;16.24;47.28;99912.28;4979837;28;1158;-52
2023/12/02 06:00:35;;;;;;;;;;;;;;;15.97;48.05;99919.78;4969030;28;1148;-49
2023/12/02 06:03:01;;;;;;;;;;;;;;;15.78;48.29;99912.53;4947406;28;1044;-51
2023/12/02 06:05:26;;;;;;;;;;;;;;;15.61;48.84;99924.53;4960267;28;1208;-53
2023/12/02 06:07:52;;;;;;;;;;;;;;;15.69;48.97;99918.56;4965927;28;1061;-49
2023/12/02 06:10:18;;;;;;;;;;;;;;;17.04;45.65;99918.78;4979021;28;1957;-51
2023/12/02 06:12:43;;;;;;;;;;;;;;;16.53;46.64;99917.75;4965933;28;1144;-52
2023/12/02 06:15:10;;;;;;;;;;;;;;;16.08;47.70;99915.41;4960307;28;1080;-49
2023/12/02 06:17:36;;;;;;;;;;;;;;;15.84;48.19;99925.28;4960115;28;1089;-47
2023/12/02 06:20:02;;;;;;;;;;;;;;;16.03;48.58;99929.91;4972275;28;1198;-50
2023/12/02 06:22:28;;;;;;;;;;;;;;;17.17;45.59;99923.88;4960999;28;1196;-49
2023/12/02 06:24:53;;;;;;;;;;;;;;;16.44;47.09;99933.63;4971313;28;1100;-49
2023/12/02 06:27:18;;;;;;;;;;;;;;;15.99;48.43;99928.50;4979323;28;1108;-49
2023/12/02 06:29:44;;;;;;;;;;;;;;;15.79;48.58;99919.50;4967390;28;1898;-52
2023/12/02 06:32:09;;;;;;;;;;;;;;;15.70;49.15;99920.28;4965460;28;1129;-53
2023/12/02 06:34:35;;;;;;;;;;;;;;;15.63;49.30;99923.41;4978940;28;1076;-50
2023/12/02 06:37:00;;;;;;;;;;;;;;;16.88;46.40;99918.31;4971047;28;1076;-49
2023/12/02 06:39:26;;;;;;;;;;;;;;;16.51;47.01;99929.50;4967787;28;1201;-47
2023/12/02 06:41:51;;;;;;;;;;;;;;;16.06;48.22;99927.97;4977047;28;1101;-51
2023/12/02 06:44:17;;;;;;;;;;;;;;;15.77;48.88;99932.91;4967311;28;1073;-50
2023/12/02 06:46:43;;;;;;;;;;;;;;;16.30;47.81;99935.66;4971939;28;1171;-52
2023/12/02 06:49:09;;;;;;;;;;;;;;;16.72;47.55;99931.25;4971042;28;1467;-52
2023/12/02 06:51:34;;;;;;;;;;;;;;;16.59;47.18;99923.50;4977777;28;1910;-50
2023/12/02 06:54:00;;;;;;;;;;;;;;;16.09;48.47;99917.09;4967924;28;1009;-51
2023/12/02 06:56:25;;;;;;;;;;;;;;;15.87;49.04;99918.84;4976255;28;1498;-53
2023/12/02 06:58:51;;;;;;;;;;;;;;;15.72;49.20;99924.47;4968574;28;1188;-49
2023/12/02 07:01:24;;;;;;;;;;;;;;;15.55;49.73;99937.31;4963134;28;1089;-52
2023/12/02 07:03:49;;;;;;;;;;;;;;;16.36;48.53;99929.00;4970833;28;1034;-47
2023/12/02 07:06:15;;;;;;;;;;;;;;;17.02;46.34;99922.44;4965352;28;1077;-49
2023/12/02 07:08:41;;;;;;;;;;;;;;;16.24;48.34;99920.25;4978798;28;1116;-52
2023/12/02 07:11:06;;;;;;;;;;;;;;;15.97;48.96;99926.88;4977731;28;1912;-49
2023/12/02 07:13:32;;;;;;;;;;;;;;;15.72;49.33;99920.97;4975568;28;855;-52
2023/12/02 07:15:57;;;;;;;;;;;;;;;16.58;48.04;99916.53;4961144;28;1158;-49
2023/12/02 07:18:23;;;;;;;;;;;;;;;16.78;47.18;99920.13;4969425;28;1115;-53
2023/12/02 07:20:48;;;;;;;;;;;;;;;16.23;48.38;99924.72;4974076;28;1096;-50
2023/12/02 07:23:14;;;;;;;;;;;;;;;15.93;49.18;99928.97;4958986;28;1161;-52
2023/12/02 07:25:39;;;;;;;;;;;;;;;16.23;48.69;99934.50;4966378;28;1065;-51
2023/12/02 07:28:05;;;;;;;;;;;;;;;16.87;47.03;99937.91;4978271;28;1020;-50
2023/12/02 07:30:30;;;;;;;;;;;;;;;16.29;48.24;99947.25;4973435;28;1911;-54
2023/12/02 07:32:56;;;;;;;;;;;;;;;15.93;49.32;99928.97;4969194;28;1010;-52
2023/12/02 07:35:21;;;;;;;;;;;;;;;15.74;49.71;99927.84;4961154;28;1232;-51
2023/12/02 07:37:49;;;;;;;;;;;;;;;15.76;49.59;99931.22;4961455;28;990;-50
2023/12/02 07:40:15;;;;;;;;;;;;;;;16.93;47.13;99935.69;4963827;28;1164;-50
2023/12/02 07:42:41;;;;;;;;;;;;;;;16.26;48.70;99935.09;4966618;28;1184;-52
2023/12/02 07:45:06;;;;;;;;;;;;;;;15.92;49.39;99940.53;4971591;28;1176;-51
2023/12/02 07:47:32;;;;;;;;;;;;;;;15.77;49.85;99932.03;4958354;28;1069;-51
2023/12/02 07:49:57;;;;;;;;;;;;;;;15.60;49.96;99928.97;4968252;28;1914;-51
2023/12/02 07:52:23;;;;;;;;;;;;;;;15.56;50.34;99927.56;4963876;28;1069;-53
2023/12/02 07:54:48;;;;;;;;;;;;;;;15.74;50.11;99916.38;4970098;28;1445;-49
2023/12/02 07:57:14;;;;;;;;;;;;;;;16.97;47.41;99914.00;4964752;28;1060;-51
2023/12/02 07:59:39;;;;;;;;;;;;;;;16.31;48.59;99928.53;4966217;28;1236;-48
2023/12/02 08:02:05;;;;;;;;;;;;;;;15.91;49.68;99925.59;4972572;28;1081;-49
2023/12/02 08:04:30;;;;;;;;;;;;;;;15.72;50.01;99927.13;4966060;28;1056;-49
2023/12/02 08:06:56;;;;;;;;;;;;;;;15.70;50.32;99934.34;4963549;28;1161;-54
2023/12/02 08:09:21;;;;;;;;;;;;;;;16.97;47.29;99923.78;4977935;28;1142;-49
2023/12/02 08:11:48;;;;;;;;;;;;;;;16.36;48.63;99921.03;4976972;28;1905;-52
2023/12/02 08:14:14;;;;;;;;;;;;;;;15.97;49.60;99910.97;4972551;28;940;-48
2023/12/02 08:16:40;;;;;;;;;;;;;;;15.83;50.32;99912.13;4964674;28;1149;-50
2023/12/02 08:19:05;;;;;;;;;;;;;;;16.10;49.83;99914.31;4977730;28;1092;-46
2023/12/02 08:21:31;;;;;;;;;;;;;;;17.23;47.02;99915.38;4964528;28;1148;-47
2023/12/02 08:23:56;;;;;;;;;;;;;;;16.53;48.78;99908.97;4965401;28;1072;-50
2023/12/02 08:26:22;;;;;;;;;;;;;;;16.13;49.48;99915.88;4964712;28;1060;-49
2023/12/02 08:28:48;;;;;;;;;;;;;;;15.91;50.25;99923.78;4977016;28;1107;-47
2023/12/02 08:31:14;;;;;;;;;;;;;;;15.77;50.54;99930.25;4973630;28;1910;-48
2023/12/02 08:33:40;;;;;;;;;;;;;;;15.66;50.48;99935.59;4976832;28;1108;-48
2023/12/02 08:36:06;;;;;;;;;;;;;;;15.64;51.01;99930.41;4962948;28;1202;-50
2023/12/02 08:38:32;;;;;;;;;;;;;;;16.91;48.29;99925.19;4961983;28;1541;-50
2023/12/02 08:40:57;;;;;;;;;;;;;;;16.86;48.27;99916.78;4966863;28;1088;-48
2023/12/02 08:43:23;;;;;;;;;;;;;;;16.28;49.60;99911.91;4975281;28;1152;-50
2023/12/02 08:45:48;;;;;;;;;;;;;;;15.97;50.43;99909.16;4966394;28;1073;-48
2023/12/02 08:48:14;;;;;;;;;;;;;;;15.83;50.64;99912.13;4962342;28;1041;-49
2023/12/02 08:50:39;;;;;;;;;;;;;;;16.37;49.72;99907.63;4965748;28;1898;-48
2023/12/02 08:53:05;;;;;;;;;;;;;;;17.09;47.75;99903.31;4970904;28;1140;-50
2023/12/02 08:55:30;;;;;;;;;;;;;;;16.38;49.66;99909.28;4958229;28;990;-45
2023/12/02 08:57:56;;;;;;;;;;;;;;;16.07;50.13;99895.16;4961863;28;1128;-47
2023/12/02 09:00:21;;;;;;;;;;;;;;;15.90;50.67;99887.63;4977519;28;1076;-49
2023/12/02 09:02:47;;;;;;;;;;;;;;;15.75;51.10;99903.00;4972974;28;1172;-52
2023/12/02 09:05:12;;;;;;;;;;;;;;;15.68;51.10;99904.50;4967846;28;1120;-49
2023/12/02 09:07:38;;;;;;;;;;;;;;;16.37;49.88;99894.34;4976816;28;1107;-49
2023/12/02 09:10:03;;;;;;;;;;;;;;;17.07;47.96;99882.16;4980091;28;1930;-49
2023/12/02 09:12:29;;;;;;;;;;;;;;;16.33;49.40;99879.66;4967464;28;1074;-47
2023/12/02 09:15:08;;;;;;;;;;;;;;;16.02;50.63;99883.13;4973810;28;976;-48
2023/12/02 09:17:59;;;;;;;;;;;;;;;15.84;50.56;99884.63;4967338;28;1060;-49
2023/12/02 09:20:38;;;;;;;;;;;;;;;16.03;50.82;99876.03;4963692;28;1263;-48
2023/12/02 09:23:06;;;;;;;;;;;;;;;17.04;48.25;99874.47;4971017;28;986;-53
2023/12/02 09:25:33;;;;;;;;;;;;;;;16.35;49.88;99872.41;4978447;28;1138;-50
2023/12/02 09:28:10;;;;;;;;;;;;;;;16.03;50.70;99878.69;4968558;28;1177;-50
2023/12/02 09:30:36;;;;;;;;;;;;;;;15.88;51.08;99884.25;4960881;28;1907;-50
2023/12/02 09:33:04;;;;;;;;;;;;;;;15.82;51.23;99889.22;4961062;28;1108;-53
2023/12/02 09:35:29;;;;;;;;;;;;;;;15.68;51.25;99883.28;4954827;28;1046;-49
2023/12/02 09:37:55;;;;;;;;;;;;;;;16.84;49.22;99884.19;4970990;28;1221;-50
2023/12/02 09:40:21;;;;;;;;;;;;;;;16.75;49.05;99884.03;4960834;28;1390;-50
2023/12/02 09:42:52;;;;;;;;;;;;;;;16.19;50.17;99875.53;4973388;28;1133;-51
2023/12/02 09:45:18;;;;;;;;;;;;;;;15.94;50.79;99871.44;4973789;28;1056;-51
2023/12/02 09:47:44;;;;;;;;;;;;;;;15.84;51.19;99868.72;4960553;28;1077;-50
2023/12/02 09:50:11;;;;;;;;;;;;;;;15.90;51.40;99849.63;4957611;28;1977;-48
2023/12/02 09:52:37;;;;;;;;;;;;;;;17.12;48.77;99837.44;4966500;28;1065;-47
2023/12/02 09:55:09;;;;;;;;;;;;;;;16.52;49.83;99827.63;4979718;28;1115;-50
2023/12/02 09:57:51;;;;;;;;;;;;;;;16.18;50.69;99827.91;4966719;28;1219;-50
2023/12/02 10:00:19;;;;;;;;;;;;;;;15.88;51.32;99828.56;4960075;28;1153;-51
2023/12/02 10:02:51;;;;;;;;;;;;;;;15.82;51.57;99831.72;4967144;28;1174;-47
2023/12/02 10:05:16;;;;;;;;;;;;;;;15.74;51.16;99832.38;4971342;28;1149;-49
2023/12/02 10:07:54;;;;;;;;;;;;;;;15.59;51.81;99826.56;4973703;28;1076;-52
2023/12/02 10:10:23;;;;;;;;;;;;;;;16.64;50.17;99839.84;4960725;28;2017;-48
2023/12/02 10:13:10;;;;;;;;;;;;;;;16.83;49.43;99845.34;4971742;28;1169;-50
2023/12/02 10:15:35;;;;;;;;;;;;;;;16.18;50.82;99831.41;4965808;28;1417;-53
2023/12/02 10:18:21;;;;;;;;;;;;;;;15.96;51.27;99833.22;4977848;28;1041;-49
2023/12/02 10:20:47;;;;;;;;;;;;;;;15.84;51.64;99834.25;4964180;28;1094;-48
2023/12/02 10:23:31;;;;;;;;;;;;;;;15.66;51.74;99825.06;4978012;28;1288;-50
2023/12/02 10:26:03;;;;;;;;;;;;;;;16.16;51.48;99828.06;4976817;28;1147;-48
2023/12/02 10:28:37;;;;;;;;;;;;;;;16.88;49.57;99824.53;4977281;28;1208;-51
2023/12/02 10:31:04;;;;;;;;;;;;;;;16.25;50.81;99821.09;4960000;28;1952;-49
2023/12/02 10:33:34;;;;;;;;;;;;;;;16.01;51.46;99828.41;4963028;28;1184;-45
2023/12/02 10:36:05;;;;;;;;;;;;;;;15.81;51.84;99818.59;4969056;28;1219;-49
2023/12/02 10:38:31;;;;;;;;;;;;;;;15.66;51.92;99819.75;4968096;28;1278;-47
2023/12/02 10:41:02;;;;;;;;;;;;;;;16.70;50.34;99821.69;4978850;28;1061;-50
2023/12/02 10:43:31;;;;;;;;;;;;;;;16.82;49.86;99809.09;4974114;28;1057;-52
2023/12/02 10:45:56;;;;;;;;;;;;;;;16.20;51.12;99808.22;4971086;28;1095;-49
2023/12/02 10:48:22;;;;;;;;;;;;;;;16.02;51.52;99805.34;4960880;28;1156;-50
2023/12/02 10:50:47;;;;;;;;;;;;;;;15.82;51.77;99796.41;4968415;28;1985;-50
2023/12/02 10:53:13;;;;;;;;;;;;;;;15.69;51.69;99804.56;4978931;28;1191;-49
2023/12/02 10:55:38;;;;;;;;;;;;;;;15.62;51.90;99807.75;4966486;28;1268;-51
2023/12/02 10:58:04;;;;;;;;;;;;;;;16.42;51.34;99798.38;4970910;28;1256;-48
2023/12/02 11:00:30;;;;;;;;;;;;;;;17.10;49.09;99801.38;4971069;28;1223;-52
2023/12/02 11:03:02;;;;;;;;;;;;;;;16.39;51.01;99785.38;4973097;28;1108;-53
2023/12/02 11:05:31;;;;;;;;;;;;;;;16.04;51.68;99776.88;4973892;28;1128;-51
2023/12/02 11:08:03;;;;;;;;;;;;;;;15.90;51.80;99776.22;4965589;28;1046;-54
2023/12/02 11:10:32;;;;;;;;;;;;;;;16.15;51.64;99778.59;4977112;28;1919;-52
2023/12/02 11:13:00;;;;;;;;;;;;;;;16.94;49.89;99778.78;4966739;28;1382;-48
2023/12/02 11:15:26;;;;;;;;;;;;;;;16.28;51.11;99791.66;4964336;28;1109;-50
2023/12/02 11:17:59;;;;;;;;;;;;;;;16.03;51.86;99791.13;4957845;28;1109;-45
2023/12/02 11:20:41;;;;;;;;;;;;;;;15.82;51.92;99794.59;4958387;28;1163;-49
2023/12/02 11:23:24;;;;;;;;;;;;;;;15.70;51.88;99804.44;4959047;28;1093;-54
2023/12/02 11:26:08;;;;;;;;;;;;;;;15.67;52.24;99815.31;4942439;28;1043;-50
2023/12/02 11:28:51;;;;;;;;;;;;;;;17.00;49.87;99814.59;4975780;28;1104;-51
2023/12/02 11:31:37;;;;;;;;;;;;;;;16.54;51.04;99804.44;4969853;28;1985;-51
2023/12/02 11:34:20;;;;;;;;;;;;;;;16.12;51.83;99798.28;4955292;28;1034;-54
2023/12/02 11:37:05;;;;;;;;;;;;;;;15.89;52.14;99785.16;4962107;28;1127;-52
2023/12/02 11:39:37;;;;;;;;;;;;;;;15.76;52.52;99784.53;4970082;28;1032;-51
2023/12/02 11:42:18;;;;;;;;;;;;;;;16.93;50.20;99779.78;4964745;28;962;-48
2023/12/02 11:44:43;;;;;;;;;;;;;;;16.30;51.44;99773.75;4963512;28;1128;-50
2023/12/02 11:47:19;;;;;;;;;;;;;;;15.98;52.01;99758.81;4959223;28;1104;-50
2023/12/02 11:49:53;;;;;;;;;;;;;;;15.81;52.44;99757.59;4970797;28;1033;-50
2023/12/02 11:52:22;;;;;;;;;;;;;;;15.69;52.49;99756.84;4976786;28;870;-52
2023/12/02 11:54:51;;;;;;;;;;;;;;;15.98;52.59;99772.06;4976444;28;1083;-51
2023/12/02 11:57:26;;;;;;;;;;;;;;;17.09;49.94;99759.81;4977817;28;1127;-48
2023/12/02 12:00:05;;;;;;;;;;;;;;;16.38;51.28;99746.56;4958797;28;1111;-47
2023/12/02 12:02:40;;;;;;;;;;;;;;;16.00;51.92;99733.84;4969078;28;1074;-51
2023/12/02 12:05:10;;;;;;;;;;;;;;;15.86;52.06;99724.44;4977780;28;1067;-48
2023/12/02 12:07:36;;;;;;;;;;;;;;;16.74;50.98;99735.44;4974516;28;1123;-49
2023/12/02 12:10:04;;;;;;;;;;;;;;;16.92;50.00;99732.94;4967165;28;1973;-49
2023/12/02 12:12:31;;;;;;;;;;;;;;;16.32;51.34;99725.84;4961638;28;1197;-53
2023/12/02 12:14:56;;;;;;;;;;;;;;;16.06;52.16;99715.72;4961396;28;1058;-50
2023/12/02 12:17:22;;;;;;;;;;;;;;;15.94;52.24;99718.44;4972628;28;1144;-52
2023/12/02 12:19:49;;;;;;;;;;;;;;;15.82;51.97;99701.78;4977293;28;1025;-48
2023/12/02 12:22:15;;;;;;;;;;;;;;;15.73;52.25;99705.25;4963745;28;1123;-51
2023/12/02 12:24:41;;;;;;;;;;;;;;;15.94;52.62;99710.50;4967737;28;1227;-51
2023/12/02 12:27:06;;;;;;;;;;;;;;;17.09;50.37;99709.31;4960826;28;1041;-46
2023/12/02 12:29:32;;;;;;;;;;;;;;;16.72;50.77;99721.44;4968377;28;1144;-49
2023/12/02 12:31:59;;;;;;;;;;;;;;;16.22;51.94;99726.66;4976841;28;1917;-45
2023/12/02 12:34:24;;;;;;;;;;;;;;;16.02;52.07;99747.84;4967131;28;1064;-50
2023/12/02 12:36:50;;;;;;;;;;;;;;;15.88;52.40;99759.59;4969761;28;1090;-50
2023/12/02 12:39:16;;;;;;;;;;;;;;;15.76;52.04;99755.34;4959223;28;1143;-48
2023/12/02 12:41:41;;;;;;;;;;;;;;;15.72;52.49;99752.13;4956531;28;1034;-50
2023/12/02 12:44:07;;;;;;;;;;;;;;;16.87;51.18;99761.72;4970054;28;1029;-49
2023/12/02 12:46:33;;;;;;;;;;;;;;;16.80;50.89;99771.25;4977868;28;1104;-49
2023/12/02 12:49:00;;;;;;;;;;;;;;;16.25;52.04;99760.91;4971787;28;1104;-49
2023/12/02 12:51:25;;;;;;;;;;;;;;;16.02;52.41;99757.59;4971034;28;1910;-52
2023/12/02 12:54:01;;;;;;;;;;;;;;;15.90;52.07;99762.97;4969783;28;1168;-49